Time;durP1;ratioP1;P1;durP2;ratioP2;P2;SDS_P1;SDS_P2;PMS_P1;PMS_P2;Temp;Humidity;BMP_temperature;BMP_pressure;BME280_temperature;BME280_humidity;BME280_pressure;Samples;Min_cycle;Max_cycle;Signal;HPM_P1;HPM_P2
2022/11/07 00:01:53;;;;;;;2.70;2.30;;;11.10;99.90;;;;;;5095457;28;20852;-59
2022/11/07 00:04:20;;;;;;;2.47;2.27;;;11.10;99.90;;;;;;5095807;28;20543;-59
2022/11/07 00:06:47;;;;;;;2.70;2.50;;;11.10;99.90;;;;;;5095605;28;21010;-59
2022/11/07 00:09:14;;;;;;;2.37;2.17;;;11.10;99.90;;;;;;5095565;28;20493;-59
2022/11/07 00:11:42;;;;;;;2.80;2.60;;;11.10;99.90;;;;;;5095745;28;20443;-59
2022/11/07 00:14:12;;;;;;;1.90;1.80;;;11.10;99.90;;;;;;5095657;28;20440;-59
2022/11/07 00:16:39;;;;;;;1.73;1.60;;;11.10;99.90;;;;;;5095630;28;20443;-59
2022/11/07 00:19:06;;;;;;;2.20;2.00;;;11.10;99.90;;;;;;5095569;28;20527;-59
2022/11/07 00:21:33;;;;;;;3.30;2.27;;;11.10;99.90;;;;;;5095245;28;20570;-59
2022/11/07 00:24:00;;;;;;;2.13;1.93;;;11.00;99.90;;;;;;5095536;28;20449;-58
2022/11/07 00:26:28;;;;;;;2.23;2.07;;;11.00;99.90;;;;;;5095347;28;20464;-59
2022/11/07 00:28:55;;;;;;;2.27;2.07;;;11.10;99.90;;;;;;5095476;28;20447;-59
2022/11/07 00:31:23;;;;;;;2.00;1.80;;;11.10;99.90;;;;;;5095065;28;20831;-59
2022/11/07 00:33:50;;;;;;;2.27;2.07;;;11.10;99.90;;;;;;5095283;28;20552;-59
2022/11/07 00:36:19;;;;;;;2.20;2.00;;;11.10;99.90;;;;;;5094904;28;20471;-58
2022/11/07 00:38:47;;;;;;;2.10;2.00;;;11.10;99.90;;;;;;5095010;28;20455;-59
2022/11/07 00:41:14;;;;;;;2.60;2.10;;;11.10;99.90;;;;;;5094574;28;21009;-59
2022/11/07 00:43:41;;;;;;;2.30;1.90;;;11.10;99.90;;;;;;5094559;28;20454;-59
2022/11/07 00:46:10;;;;;;;1.93;1.77;;;11.10;99.90;;;;;;5095112;28;20474;-59
2022/11/07 00:48:38;;;;;;;2.50;2.30;;;11.10;99.90;;;;;;5094334;28;20475;-60
2022/11/07 00:51:07;;;;;;;1.60;1.50;;;11.20;99.90;;;;;;5094656;28;20977;-59
2022/11/07 00:53:35;;;;;;;2.40;1.60;;;11.20;99.90;;;;;;5094732;28;20459;-59
2022/11/07 00:56:02;;;;;;;1.77;1.63;;;11.20;99.90;;;;;;5094516;28;20972;-59
2022/11/07 00:58:30;;;;;;;2.40;1.83;;;11.20;99.90;;;;;;5094817;28;20469;-59
2022/11/07 01:00:57;;;;;;;2.00;1.90;;;11.30;99.90;;;;;;5094724;28;20538;-59
2022/11/07 01:06:11;;;;;;;2.43;2.00;;;11.30;99.90;;;;;;5094476;28;20434;-59
2022/11/07 01:08:38;;;;;;;2.40;1.97;;;11.30;99.90;;;;;;5094541;28;20467;-59
2022/11/07 01:11:07;;;;;;;1.90;1.80;;;11.30;99.90;;;;;;5094280;28;20458;-59
2022/11/07 01:13:35;;;;;;;1.97;1.87;;;11.30;99.90;;;;;;5094657;28;20448;-59
2022/11/07 01:16:02;;;;;;;2.03;1.63;;;11.30;99.90;;;;;;5094161;28;20829;-59
2022/11/07 01:18:30;;;;;;;1.87;1.67;;;11.20;99.90;;;;;;5094108;28;20479;-59
2022/11/07 01:20:57;;;;;;;2.10;1.90;;;11.20;99.90;;;;;;5094466;28;20825;-59
2022/11/07 01:23:25;;;;;;;1.90;1.80;;;11.10;99.90;;;;;;5094437;28;20450;-59
2022/11/07 01:25:52;;;;;;;1.90;1.80;;;11.10;99.90;;;;;;5094430;28;20821;-59
2022/11/07 01:28:19;;;;;;;2.70;1.90;;;11.00;99.90;;;;;;5094401;28;20486;-59
2022/11/07 01:30:47;;;;;;;3.27;1.67;;;11.00;99.90;;;;;;5093908;28;20440;-59
2022/11/07 01:33:14;;;;;;;3.90;1.70;;;11.00;99.90;;;;;;5094178;28;20447;-59
2022/11/07 01:35:41;;;;;;;3.00;1.83;;;11.00;99.90;;;;;;5093972;28;20463;-60
2022/11/07 01:38:08;;;;;;;2.23;1.83;;;11.00;99.90;;;;;;5093909;28;20538;-59
2022/11/07 01:43:23;;;;;;;2.20;2.00;;;10.90;99.90;;;;;;5093560;28;20512;-59
2022/11/07 01:45:50;;;;;;;2.70;2.20;;;11.00;99.90;;;;;;5094075;28;20466;-59
2022/11/07 01:48:17;;;;;;;1.87;1.73;;;11.00;99.90;;;;;;5093815;28;20482;-59
2022/11/07 01:50:44;;;;;;;3.17;2.40;;;10.90;99.90;;;;;;5093891;28;20435;-59
2022/11/07 01:53:12;;;;;;;2.20;2.00;;;10.90;99.90;;;;;;5093406;28;20443;-59
2022/11/07 01:55:39;;;;;;;2.03;1.83;;;10.90;99.90;;;;;;5093246;28;20542;-59
2022/11/07 01:58:09;;;;;;;3.73;2.03;;;10.90;99.90;;;;;;5093732;28;20439;-59
2022/11/07 02:00:37;;;;;;;2.00;1.87;;;10.90;99.90;;;;;;5093742;28;20448;-59
2022/11/07 02:03:07;;;;;;;2.30;2.10;;;10.90;99.90;;;;;;5093409;28;20443;-59
2022/11/07 02:05:38;;;;;;;2.40;2.00;;;10.90;99.90;;;;;;5093413;28;20846;-59
2022/11/07 02:08:08;;;;;;;2.40;2.20;;;10.80;99.90;;;;;;5093635;28;20462;-59
2022/11/07 02:10:36;;;;;;;1.90;1.80;;;10.90;99.90;;;;;;5093444;28;20942;-59
2022/11/07 02:13:04;;;;;;;2.07;1.87;;;10.90;99.90;;;;;;5093697;28;20451;-59
2022/11/07 02:15:33;;;;;;;2.20;2.10;;;10.90;99.90;;;;;;5093580;28;20471;-59
2022/11/07 02:18:01;;;;;;;1.97;1.80;;;10.90;99.90;;;;;;5093339;28;20457;-59
2022/11/07 02:20:29;;;;;;;3.10;2.13;;;10.90;99.90;;;;;;5093679;28;20443;-59
2022/11/07 02:22:59;;;;;;;3.17;2.23;;;10.90;99.90;;;;;;5093231;28;20443;-59
2022/11/07 02:25:29;;;;;;;2.20;2.00;;;10.90;99.90;;;;;;5093656;28;20463;-59
2022/11/07 02:27:59;;;;;;;2.13;1.93;;;11.00;99.90;;;;;;5093409;28;20534;-59
2022/11/07 02:30:29;;;;;;;2.37;2.17;;;11.00;99.90;;;;;;5093465;28;20447;-60
2022/11/07 02:32:56;;;;;;;1.87;1.77;;;11.00;99.90;;;;;;5093565;28;20450;-59
2022/11/07 02:35:37;;;;;;;6.53;1.97;;;11.00;99.90;;;;;;5093485;28;20524;-59
2022/11/07 02:38:09;;;;;;;2.23;2.03;;;11.00;99.90;;;;;;5093323;28;20933;-59
2022/11/07 02:40:38;;;;;;;2.10;1.80;;;11.10;99.90;;;;;;5093580;28;20435;-59
2022/11/07 02:43:06;;;;;;;2.90;2.17;;;11.10;99.90;;;;;;5093029;28;20903;-60
2022/11/07 02:45:37;;;;;;;3.10;1.97;;;11.10;99.90;;;;;;5093113;28;20467;-60
2022/11/07 02:48:05;;;;;;;2.30;2.10;;;11.10;99.90;;;;;;5093160;28;20483;-59
2022/11/07 02:50:32;;;;;;;3.80;2.10;;;11.20;99.90;;;;;;5093141;28;20447;-59
2022/11/07 02:52:59;;;;;;;2.53;2.33;;;11.20;99.90;;;;;;5092963;28;20450;-59
2022/11/07 02:55:26;;;;;;;3.20;2.60;;;11.20;99.90;;;;;;5092977;28;20966;-60
2022/11/07 02:57:54;;;;;;;2.17;1.90;;;11.30;99.90;;;;;;5093296;28;20782;-59
2022/11/07 03:00:22;;;;;;;2.37;2.10;;;11.30;99.90;;;;;;5093198;28;20450;-59
2022/11/07 03:02:49;;;;;;;2.83;2.10;;;11.30;99.90;;;;;;5093061;28;20485;-59
2022/11/07 03:05:18;;;;;;;2.53;2.30;;;11.40;99.90;;;;;;5093994;28;20464;-59
2022/11/07 03:07:46;;;;;;;4.57;2.50;;;11.40;99.90;;;;;;5096542;28;20455;-59
2022/11/07 03:10:15;;;;;;;2.60;2.30;;;11.30;99.90;;;;;;5097088;28;20433;-59
2022/11/07 03:12:42;;;;;;;3.03;2.20;;;11.30;99.90;;;;;;5096936;28;20465;-59
2022/11/07 03:15:12;;;;;;;2.73;2.10;;;11.40;99.90;;;;;;5096461;28;21036;-59
2022/11/07 03:17:39;;;;;;;2.83;1.83;;;11.40;99.90;;;;;;5096751;28;20558;-59
2022/11/07 03:20:08;;;;;;;3.27;2.03;;;11.40;99.90;;;;;;5096876;28;20552;-58
2022/11/07 03:22:35;;;;;;;3.83;2.30;;;11.40;99.90;;;;;;5096292;28;20569;-59
2022/11/07 03:25:02;;;;;;;2.60;2.10;;;11.50;99.90;;;;;;5096615;28;20558;-59
2022/11/07 03:27:30;;;;;;;2.30;2.10;;;11.50;99.90;;;;;;5096719;28;20455;-59
2022/11/07 03:29:57;;;;;;;2.10;1.90;;;11.50;99.90;;;;;;5096267;28;20531;-59
2022/11/07 03:32:25;;;;;;;1.97;1.87;;;11.50;99.90;;;;;;5096481;28;20523;-59
2022/11/07 03:34:53;;;;;;;2.27;2.07;;;11.60;99.90;;;;;;5096674;28;20467;-59
2022/11/07 03:37:20;;;;;;;2.00;1.90;;;11.60;99.90;;;;;;5096127;28;20956;-59
2022/11/07 03:39:47;;;;;;;2.70;1.70;;;11.60;99.90;;;;;;5096584;28;20788;-59
2022/11/07 03:42:14;;;;;;;2.60;2.40;;;11.60;99.90;;;;;;5096447;28;20483;-60
2022/11/07 03:44:41;;;;;;;5.30;2.03;;;11.70;99.90;;;;;;5096197;28;20463;-59
2022/11/07 03:47:08;;;;;;;2.93;2.13;;;11.70;99.90;;;;;;5095819;28;20542;-59
2022/11/07 03:49:37;;;;;;;6.13;2.03;;;11.70;99.90;;;;;;5096336;28;20448;-59
2022/11/07 03:52:04;;;;;;;6.07;2.63;;;11.70;99.90;;;;;;5095844;28;20930;-59
2022/11/07 03:54:31;;;;;;;3.03;2.00;;;11.70;99.90;;;;;;5096014;28;20486;-60
2022/11/07 03:56:58;;;;;;;2.57;1.80;;;11.70;99.90;;;;;;5095845;28;20930;-60
2022/11/07 03:59:26;;;;;;;4.70;2.20;;;11.70;99.90;;;;;;5096032;28;20448;-59
2022/11/07 04:01:53;;;;;;;2.50;1.80;;;11.70;99.90;;;;;;5095560;28;20486;-59
2022/11/07 04:04:20;;;;;;;2.70;2.10;;;11.70;99.90;;;;;;5096005;28;20443;-59
2022/11/07 04:06:49;;;;;;;3.10;2.00;;;11.70;99.90;;;;;;5095924;28;20447;-60
2022/11/07 04:09:16;;;;;;;2.10;1.90;;;11.70;99.90;;;;;;5095649;28;20654;-59
2022/11/07 04:17:21;;;;;;;1.90;1.70;;;11.70;99.90;;;;;;5094691;28;20474;-59
2022/11/07 04:19:50;;;;;;;1.87;1.77;;;11.60;99.90;;;;;;5095841;28;20434;-59
2022/11/07 04:22:19;;;;;;;2.50;2.30;;;11.60;99.90;;;;;;5095153;28;21064;-59
2022/11/07 04:24:46;;;;;;;2.20;2.00;;;11.60;99.90;;;;;;5095414;28;20460;-59
2022/11/07 04:30:17;;;;;;;3.20;2.30;;;11.50;99.90;;;;;;5095504;28;20438;-59
2022/11/07 04:32:45;;;;;;;2.43;2.20;;;11.60;99.90;;;;;;5095215;28;20420;-59
2022/11/07 04:35:12;;;;;;;2.20;2.00;;;11.60;99.90;;;;;;5095305;28;20968;-59
2022/11/07 04:37:40;;;;;;;2.87;2.00;;;11.50;99.90;;;;;;5095284;28;20449;-59
2022/11/07 04:40:09;;;;;;;2.17;2.00;;;11.50;99.90;;;;;;5095102;28;20526;-59
2022/11/07 04:42:36;;;;;;;2.17;1.97;;;11.50;99.90;;;;;;5095071;28;20486;-59
2022/11/07 04:45:04;;;;;;;2.70;2.10;;;11.60;99.90;;;;;;5094873;28;20473;-59
2022/11/07 04:47:32;;;;;;;2.20;2.00;;;11.60;99.90;;;;;;5094968;28;20489;-59
2022/11/07 04:49:59;;;;;;;3.40;2.00;;;11.50;99.90;;;;;;5095209;28;20427;-60
2022/11/07 04:52:26;;;;;;;4.27;2.73;;;11.50;99.90;;;;;;5094660;28;20447;-60
2022/11/07 04:54:54;;;;;;;2.73;1.80;;;11.50;99.90;;;;;;5094854;28;20471;-59
2022/11/07 04:57:21;;;;;;;2.43;1.97;;;11.40;99.90;;;;;;5094878;28;20538;-59
2022/11/07 04:59:49;;;;;;;4.10;2.10;;;11.50;99.90;;;;;;5095024;28;20448;-60
2022/11/07 05:02:16;;;;;;;2.73;2.53;;;11.40;99.90;;;;;;5094317;28;21050;-59
2022/11/07 05:04:43;;;;;;;3.87;2.27;;;11.40;99.90;;;;;;5094986;28;20493;-60
2022/11/07 05:07:10;;;;;;;2.90;2.00;;;11.30;99.90;;;;;;5094366;28;20521;-59
2022/11/07 05:09:37;;;;;;;2.60;2.40;;;11.20;99.90;;;;;;5094805;28;20455;-59
2022/11/07 05:12:06;;;;;;;3.50;2.60;;;11.20;99.90;;;;;;5094802;28;20443;-59
2022/11/07 05:14:34;;;;;;;8.77;2.33;;;11.20;99.90;;;;;;5094164;28;20475;-60
2022/11/07 05:17:03;;;;;;;2.50;2.20;;;11.10;99.90;;;;;;5094529;28;20448;-59
2022/11/07 05:19:30;;;;;;;2.67;2.40;;;11.10;99.90;;;;;;5094365;28;20450;-60
2022/11/07 05:24:38;;;;;;;3.80;2.93;;;11.00;99.90;;;;;;5093817;28;20972;-60
2022/11/07 05:27:07;;;;;;;3.60;2.80;;;10.90;99.90;;;;;;5094031;28;20921;-59
2022/11/07 05:29:34;;;;;;;3.83;2.47;;;10.80;99.90;;;;;;5093987;28;20454;-59
2022/11/07 05:32:01;;;;;;;4.13;2.90;;;10.80;99.90;;;;;;5093889;28;21001;-59
2022/11/07 05:34:28;;;;;;;2.47;2.27;;;10.80;99.90;;;;;;5093725;28;21005;-60
2022/11/07 05:36:55;;;;;;;5.03;2.97;;;10.80;99.90;;;;;;5093945;28;20795;-59
2022/11/07 05:39:23;;;;;;;4.73;2.97;;;10.70;99.90;;;;;;5093900;28;20538;-59
2022/11/07 05:41:50;;;;;;;3.10;2.23;;;10.70;99.90;;;;;;5093641;28;20483;-59
2022/11/07 05:44:18;;;;;;;5.70;2.93;;;10.60;99.90;;;;;;5093850;28;20454;-59
2022/11/07 05:46:45;;;;;;;4.10;3.47;;;10.60;99.90;;;;;;5093801;28;20448;-59
2022/11/07 05:49:13;;;;;;;4.93;2.97;;;10.60;99.90;;;;;;5093431;28;20987;-59
2022/11/07 05:51:42;;;;;;;6.03;2.60;;;10.60;99.90;;;;;;5093846;28;20471;-60
2022/11/07 05:54:09;;;;;;;3.87;2.67;;;10.60;99.90;;;;;;5093582;28;20489;-59
2022/11/07 05:56:37;;;;;;;6.43;2.83;;;10.70;99.90;;;;;;5093828;28;20447;-60
2022/11/07 05:59:05;;;;;;;2.57;2.10;;;10.70;99.90;;;;;;5093674;28;20443;-60
2022/11/07 06:01:33;;;;;;;2.77;2.57;;;10.70;99.90;;;;;;5093653;28;20450;-60
2022/11/07 06:04:00;;;;;;;3.80;2.87;;;10.60;99.90;;;;;;5093218;28;20934;-59
2022/11/07 06:06:27;;;;;;;3.63;2.80;;;10.60;99.90;;;;;;5093242;28;20467;-59
2022/11/07 06:08:54;;;;;;;5.73;3.60;;;10.50;99.90;;;;;;5093799;28;20465;-59
2022/11/07 06:11:21;;;;;;;4.33;2.67;;;10.50;99.90;;;;;;5093269;28;20458;-59
2022/11/07 06:13:49;;;;;;;3.20;2.63;;;10.60;99.90;;;;;;5093431;28;20467;-59
2022/11/07 06:16:16;;;;;;;4.57;2.47;;;10.60;99.90;;;;;;5093571;28;20478;-59
2022/11/07 06:18:44;;;;;;;5.23;3.23;;;10.50;99.90;;;;;;5093160;28;20477;-59
2022/11/07 06:21:12;;;;;;;3.20;2.33;;;10.50;99.90;;;;;;5093116;28;20538;-59
2022/11/07 06:23:39;;;;;;;6.57;2.90;;;10.50;99.90;;;;;;5093228;28;20490;-59
2022/11/07 06:26:07;;;;;;;3.70;2.10;;;10.50;99.90;;;;;;5093361;28;20467;-59
2022/11/07 06:28:34;;;;;;;3.00;2.70;;;10.50;99.90;;;;;;5093249;28;20456;-59
2022/11/07 06:31:01;;;;;;;3.90;2.50;;;10.50;99.90;;;;;;5093444;28;20454;-59
2022/11/07 06:33:29;;;;;;;3.13;2.83;;;10.60;99.90;;;;;;5092907;28;20443;-59
2022/11/07 06:36:05;;;;;;;2.70;2.40;;;10.60;99.90;;;;;;5093296;28;20479;-60
2022/11/07 06:38:32;;;;;;;3.70;2.47;;;10.80;99.90;;;;;;5093199;28;20550;-59
2022/11/07 06:41:05;;;;;;;4.67;2.70;;;10.90;99.90;;;;;;5095567;28;20903;-59
2022/11/07 06:43:33;;;;;;;3.23;2.90;;;11.10;99.90;;;;;;5097134;28;20545;-60
2022/11/07 06:46:03;;;;;;;3.63;2.73;;;11.20;99.90;;;;;;5097088;28;20814;-60
2022/11/07 06:48:31;;;;;;;2.97;2.47;;;11.30;99.90;;;;;;5096842;28;20483;-60
2022/11/07 06:51:00;;;;;;;3.17;2.17;;;11.40;99.90;;;;;;5097011;28;20866;-59
2022/11/07 06:53:28;;;;;;;5.33;2.50;;;11.40;99.90;;;;;;5097145;28;20447;-59
2022/11/07 06:55:55;;;;;;;3.63;2.60;;;11.50;99.90;;;;;;5096666;28;20463;-59
2022/11/07 06:58:23;;;;;;;3.50;2.10;;;11.60;99.90;;;;;;5097080;28;20538;-59
2022/11/07 07:00:50;;;;;;;4.23;2.73;;;11.60;99.90;;;;;;5096921;28;20457;-60
2022/11/07 07:03:17;;;;;;;4.07;2.70;;;11.60;99.90;;;;;;5096527;28;20479;-60
2022/11/07 07:05:44;;;;;;;4.77;2.30;;;11.60;99.90;;;;;;5096421;28;21024;-59
2022/11/07 07:08:13;;;;;;;5.30;2.20;;;11.70;99.90;;;;;;5096604;28;20970;-60
2022/11/07 07:10:44;;;;;;;4.47;2.63;;;11.70;99.90;;;;;;5096476;28;20453;-59
2022/11/07 07:13:11;;;;;;;7.50;2.70;;;11.80;99.90;;;;;;5096760;28;20458;-59
2022/11/07 07:15:39;;;;;;;3.03;2.17;;;12.00;99.90;;;;;;5096226;28;20471;-59
2022/11/07 07:18:06;;;;;;;3.87;2.73;;;12.00;99.90;;;;;;5096442;28;20447;-59
2022/11/07 07:20:33;;;;;;;3.30;2.50;;;12.00;99.90;;;;;;5096307;28;20482;-59
2022/11/07 07:23:01;;;;;;;3.20;2.77;;;12.00;99.90;;;;;;5096423;28;20606;-59
2022/11/07 07:25:29;;;;;;;5.77;2.50;;;12.10;99.90;;;;;;5096073;28;20478;-58
2022/11/07 07:27:56;;;;;;;3.40;2.50;;;12.10;99.90;;;;;;5096232;28;20952;-60
2022/11/07 07:30:23;;;;;;;5.27;2.70;;;12.10;99.90;;;;;;5096531;28;20448;-60
2022/11/07 07:32:51;;;;;;;2.80;2.30;;;12.20;99.90;;;;;;5095868;28;20486;-59
2022/11/07 07:35:18;;;;;;;6.20;2.57;;;12.20;99.90;;;;;;5095844;28;20471;-60
2022/11/07 07:37:49;;;;;;;5.80;2.80;;;12.20;99.90;;;;;;5096222;28;20531;-60
2022/11/07 07:40:17;;;;;;;3.20;2.23;;;12.20;99.90;;;;;;5096038;28;20451;-60
2022/11/07 07:42:45;;;;;;;5.07;2.50;;;12.40;99.90;;;;;;5095435;28;20838;-60
2022/11/07 07:45:14;;;;;;;6.13;2.70;;;12.40;99.90;;;;;;5095924;28;20649;-59
2022/11/07 07:47:42;;;;;;;7.80;2.80;;;12.40;99.90;;;;;;5095786;28;20506;-59
2022/11/07 07:50:11;;;;;;;4.07;2.40;;;12.40;99.90;;;;;;5095735;28;20920;-59
2022/11/07 07:52:38;;;;;;;2.57;2.20;;;12.40;99.90;;;;;;5094306;28;20876;-59
2022/11/07 07:55:08;;;;;;;2.93;2.63;;;12.50;99.90;;;;;;5095679;28;20468;-59
2022/11/07 07:57:39;;;;;;;3.37;2.50;;;12.60;99.90;;;;;;5095683;28;20538;-59
2022/11/07 08:00:10;;;;;;;3.97;2.60;;;12.70;99.90;;;;;;5095651;28;20436;-59
2022/11/07 08:02:37;;;;;;;2.50;2.20;;;12.70;99.90;;;;;;5095741;28;20487;-59
2022/11/07 08:05:05;;;;;;;6.90;3.17;;;12.70;99.90;;;;;;5095559;28;20555;-59
2022/11/07 08:07:32;;;;;;;5.60;2.43;;;12.80;99.90;;;;;;5095349;28;20447;-59
2022/11/07 08:09:59;;;;;;;5.70;2.20;;;12.80;99.90;;;;;;5095224;28;21055;-59
2022/11/07 08:12:26;;;;;;;3.20;2.30;;;12.80;99.90;;;;;;5095675;28;20475;-59
2022/11/07 08:14:53;;;;;;;3.27;2.40;;;12.90;99.90;;;;;;5095487;28;20546;-59
2022/11/07 08:17:22;;;;;;;5.73;2.63;;;13.00;99.90;;;;;;5095195;28;20477;-59
2022/11/07 08:19:49;;;;;;;3.63;2.50;;;13.00;99.90;;;;;;5095687;28;20818;-59
2022/11/07 08:22:16;;;;;;;5.23;2.63;;;13.00;99.90;;;;;;5095232;28;20461;-59
2022/11/07 08:24:43;;;;;;;3.53;2.37;;;13.10;99.90;;;;;;5095280;28;20478;-59
2022/11/07 08:27:10;;;;;;;3.47;2.97;;;13.10;99.90;;;;;;5095091;28;20450;-58
2022/11/07 08:29:37;;;;;;;4.70;3.07;;;13.10;99.90;;;;;;5095155;28;20448;-58
2022/11/07 08:32:05;;;;;;;7.00;2.53;;;13.20;99.90;;;;;;5094753;28;20482;-59
2022/11/07 08:34:33;;;;;;;4.10;2.43;;;13.20;99.90;;;;;;5094758;28;20546;-59
2022/11/07 08:37:05;;;;;;;3.87;2.87;;;13.00;99.90;;;;;;5094660;28;20520;-59
2022/11/07 08:39:32;;;;;;;5.07;3.17;;;13.10;99.90;;;;;;5095202;28;20550;-59
2022/11/07 08:41:59;;;;;;;4.00;3.00;;;13.10;99.90;;;;;;5094834;28;20477;-58
2022/11/07 08:44:27;;;;;;;5.07;2.80;;;13.10;99.90;;;;;;5094300;28;20491;-59
2022/11/07 08:46:54;;;;;;;7.07;2.70;;;13.20;99.90;;;;;;5094924;28;20538;-58
2022/11/07 08:49:21;;;;;;;4.07;2.57;;;13.20;99.90;;;;;;5094450;28;20478;-59
2022/11/07 08:51:53;;;;;;;6.87;3.53;;;13.10;99.90;;;;;;5094568;28;20427;-59
2022/11/07 08:54:21;;;;;;;5.03;2.70;;;13.30;99.90;;;;;;5094613;28;20531;-59
2022/11/07 08:56:48;;;;;;;3.57;2.60;;;13.30;99.90;;;;;;5094344;28;20451;-58
2022/11/07 08:59:16;;;;;;;5.10;2.60;;;13.40;99.90;;;;;;5094713;28;20833;-59
2022/11/07 09:01:43;;;;;;;2.87;1.90;;;13.50;99.90;;;;;;5094641;28;20508;-59
2022/11/07 09:04:10;;;;;;;6.53;2.87;;;13.60;99.90;;;;;;5093609;28;21035;-59
2022/11/07 09:06:37;;;;;;;5.10;2.63;;;13.70;99.90;;;;;;5094413;28;21012;-59
2022/11/07 09:09:06;;;;;;;6.87;2.70;;;13.80;99.90;;;;;;5094646;28;20486;-59
2022/11/07 09:11:33;;;;;;;4.07;2.70;;;13.80;99.90;;;;;;5094116;28;20448;-58
2022/11/07 09:14:00;;;;;;;3.80;2.80;;;13.80;99.90;;;;;;5093914;28;20952;-60
2022/11/07 09:16:27;;;;;;;6.80;3.07;;;13.80;99.90;;;;;;5094317;28;20459;-57
2022/11/07 09:18:55;;;;;;;9.33;2.80;;;13.90;99.90;;;;;;5094007;28;20454;-57
2022/11/07 09:21:22;;;;;;;4.70;2.97;;;14.00;99.90;;;;;;5094289;28;20498;-60
2022/11/07 09:23:49;;;;;;;3.77;2.87;;;13.90;99.90;;;;;;5094012;28;20566;-60
2022/11/07 09:26:18;;;;;;;4.50;2.40;;;13.90;99.90;;;;;;5093786;28;20482;-60
2022/11/07 09:28:45;;;;;;;6.60;3.23;;;13.90;99.90;;;;;;5093858;28;20529;-58
2022/11/07 09:31:12;;;;;;;7.07;2.67;;;14.00;99.90;;;;;;5093682;28;20534;-58
2022/11/07 09:33:39;;;;;;;5.10;2.60;;;14.00;99.90;;;;;;5093796;28;20447;-58
2022/11/07 09:36:07;;;;;;;3.40;2.43;;;14.10;99.90;;;;;;5093727;28;21067;-60
2022/11/07 09:38:34;;;;;;;4.27;2.47;;;14.00;99.90;;;;;;5094002;28;20485;-58
2022/11/07 09:41:06;;;;;;;8.10;2.90;;;14.20;99.90;;;;;;5093602;28;20530;-58
2022/11/07 09:43:50;;;;;;;4.53;2.50;;;14.10;99.90;;;;;;5093737;28;20506;-58
2022/11/07 09:46:27;;;;;;;4.43;3.07;;;14.20;99.90;;;;;;5093646;28;20973;-58
2022/11/07 09:48:59;;;;;;;4.70;3.10;;;14.30;99.90;;;;;;5093534;28;20556;-58
2022/11/07 09:51:32;;;;;;;6.10;2.70;;;14.20;99.90;;;;;;5093514;28;20442;-58
2022/11/07 09:54:04;;;;;;;2.77;2.37;;;14.10;99.90;;;;;;5093591;28;20508;-58
2022/11/07 09:56:33;;;;;;;6.17;2.53;;;14.10;99.90;;;;;;5093020;28;20464;-58
2022/11/07 09:59:06;;;;;;;3.60;2.20;;;14.10;99.90;;;;;;5093655;28;20569;-58
2022/11/07 10:01:34;;;;;;;3.13;2.30;;;14.10;99.90;;;;;;5093456;28;20428;-58
2022/11/07 10:04:01;;;;;;;3.43;2.03;;;14.20;99.90;;;;;;5093324;28;20578;-58
2022/11/07 10:06:32;;;;;;;2.83;2.23;;;14.20;99.90;;;;;;5093507;28;20473;-58
2022/11/07 10:09:10;;;;;;;10.30;2.67;;;14.20;99.90;;;;;;5093770;28;20451;-58
2022/11/07 10:11:42;;;;;;;5.97;2.30;;;14.20;99.90;;;;;;5093567;28;20432;-58
2022/11/07 10:14:19;;;;;;;4.40;2.17;;;14.20;99.90;;;;;;5092870;28;20432;-58
2022/11/07 10:16:59;;;;;;;5.67;2.43;;;14.30;99.90;;;;;;5093400;28;20498;-58
2022/11/07 10:19:45;;;;;;;4.10;2.23;;;14.30;99.90;;;;;;5092979;28;20431;-58
2022/11/07 10:22:21;;;;;;;5.90;2.40;;;14.30;99.90;;;;;;5093100;28;20438;-58
2022/11/07 10:25:06;;;;;;;7.30;3.77;;;14.10;99.90;;;;;;5092804;28;20901;-58
2022/11/07 10:27:35;;;;;;;6.60;3.60;;;14.20;99.90;;;;;;5093193;28;20523;-58
2022/11/07 10:30:15;;;;;;;10.00;2.60;;;14.10;99.90;;;;;;5093330;28;20534;-58
2022/11/07 10:32:49;;;;;;;4.60;2.27;;;14.20;99.90;;;;;;5093041;28;20925;-59
2022/11/07 10:35:25;;;;;;;5.70;2.30;;;14.30;99.90;;;;;;5093041;28;20458;-58
2022/11/07 10:37:57;;;;;;;9.43;3.57;;;14.50;99.90;;;;;;5092826;28;20869;-58
2022/11/07 10:40:27;;;;;;;4.30;2.20;;;14.60;99.90;;;;;;5093187;28;20466;-58
2022/11/07 10:42:55;;;;;;;3.17;2.13;;;14.50;99.90;;;;;;5093039;28;20787;-58
2022/11/07 10:45:25;;;;;;;6.50;2.60;;;14.60;99.90;;;;;;5092984;28;20462;-59
2022/11/07 10:47:57;;;;;;;2.53;1.97;;;14.60;99.90;;;;;;5092718;28;20467;-58
2022/11/07 10:50:25;;;;;;;4.60;2.50;;;14.60;99.90;;;;;;5092854;28;20450;-59
2022/11/07 10:52:53;;;;;;;4.03;2.30;;;14.70;99.90;;;;;;5093193;28;20444;-58
2022/11/07 10:55:21;;;;;;;4.60;2.30;;;14.70;99.90;;;;;;5092653;28;20989;-59
2022/11/07 10:57:54;;;;;;;11.93;3.30;;;14.70;99.90;;;;;;5092970;28;20810;-59
2022/11/07 11:00:26;;;;;;;3.63;2.03;;;14.90;99.90;;;;;;5092879;28;20424;-58
2022/11/07 11:02:55;;;;;;;4.23;2.40;;;15.50;99.90;;;;;;5092976;28;20831;-58
2022/11/07 11:05:25;;;;;;;5.63;3.10;;;16.00;99.90;;;;;;5092404;28;20491;-58
2022/11/07 11:07:56;;;;;;;2.90;2.00;;;16.50;99.90;;;;;;5092597;28;20534;-58
2022/11/07 11:10:24;;;;;;;4.13;2.30;;;16.40;99.90;;;;;;5092516;28;20501;-57
2022/11/07 11:12:52;;;;;;;5.50;2.40;;;16.10;99.90;;;;;;5092477;28;20547;-58
2022/11/07 11:15:22;;;;;;;3.77;2.57;;;15.90;99.90;;;;;;5091969;28;20552;-58
2022/11/07 11:18:00;;;;;;;4.50;2.40;;;16.10;99.90;;;;;;5092816;28;20784;-58
2022/11/07 11:20:33;;;;;;;3.00;2.20;;;16.40;99.90;;;;;;5092569;28;20450;-58
2022/11/07 11:23:01;;;;;;;4.47;2.50;;;16.70;99.90;;;;;;5092627;28;20428;-58
2022/11/07 11:25:28;;;;;;;3.73;3.20;;;17.30;99.90;;;;;;5092246;28;20522;-58
2022/11/07 11:28:02;;;;;;;3.60;2.00;;;17.90;99.90;;;;;;5096248;28;20527;-59
2022/11/07 11:30:30;;;;;;;4.77;2.27;;;17.80;99.90;;;;;;5096463;28;20613;-59
2022/11/07 11:33:06;;;;;;;3.00;2.00;;;18.10;99.90;;;;;;5095958;28;20455;-58
2022/11/07 11:35:37;;;;;;;3.73;2.37;;;17.80;99.90;;;;;;5095955;28;20494;-59
2022/11/07 11:38:13;;;;;;;3.30;2.07;;;17.70;99.90;;;;;;5096413;28;20470;-58
2022/11/07 11:40:43;;;;;;;3.10;1.93;;;;;;;;;;5095998;28;20511;-60
2022/11/07 11:43:20;;;;;;;4.83;1.40;;;17.30;99.90;;;;;;5095984;28;20512;-59
2022/11/07 11:46:01;;;;;;;3.13;1.80;;;16.80;99.90;;;;;;5096061;28;20491;-60
2022/11/07 11:48:34;;;;;;;3.83;1.87;;;16.60;99.90;;;;;;5095549;28;20471;-60
2022/11/07 11:51:06;;;;;;;2.03;1.63;;;16.50;99.90;;;;;;5096052;28;20955;-60
2022/11/07 11:53:33;;;;;;;8.20;2.20;;;16.70;99.90;;;;;;5095757;28;20467;-60
2022/11/07 11:56:25;;;;;;;4.03;1.97;;;16.90;99.90;;;;;;5095602;28;20471;-59
2022/11/07 11:59:02;;;;;;;4.03;2.10;;;16.90;99.90;;;;;;5096140;28;20515;-60
2022/11/07 12:01:39;;;;;;;4.43;2.30;;;16.80;99.90;;;;;;5095460;28;20459;-59
2022/11/07 12:04:45;;;;;;;4.40;2.00;;;16.80;99.90;;;;;;5095580;28;20841;-59
2022/11/07 12:07:31;;;;;;;3.10;1.60;;;16.40;99.90;;;;;;5064188;28;20538;-60
2022/11/07 12:10:03;;;;;;;4.33;2.10;;;16.20;99.90;;;;;;5095588;28;20428;-60
2022/11/07 12:12:38;;;;;;;2.97;2.00;;;16.00;99.90;;;;;;5095372;28;20906;-59
2022/11/07 12:15:44;;;;;;;3.13;1.70;;;16.10;99.90;;;;;;5095417;28;20812;-59
2022/11/07 12:18:19;;;;;;;10.30;8.23;;;16.30;99.90;;;;;;5090013;28;20477;-59
2022/11/07 12:21:02;;;;;;;5.07;2.17;;;16.50;99.90;;;;;;5095247;28;20431;-59
2022/11/07 12:23:46;;;;;;;4.07;2.00;;;16.50;99.90;;;;;;5095198;28;20454;-59
2022/11/07 12:26:23;;;;;;;2.40;1.77;;;16.30;99.90;;;;;;5094734;28;20463;-59
2022/11/07 12:28:59;;;;;;;7.13;2.13;;;16.40;99.90;;;;;;5095397;28;20428;-60
2022/11/07 12:31:47;;;;;;;2.90;2.00;;;16.30;99.90;;;;;;5095390;28;20821;-59
2022/11/07 12:34:28;;;;;;;5.00;3.20;;;16.30;99.90;;;;;;5094656;28;20793;-60
2022/11/07 12:37:24;;;;;;;6.73;2.07;;;16.30;99.90;;;;;;5094787;28;20424;-59
2022/11/07 12:40:03;;;;;;;2.20;1.57;;;16.40;99.90;;;;;;5094985;28;20547;-59
2022/11/07 12:42:46;;;;;;;4.07;1.87;;;16.40;99.90;;;;;;5094503;28;20419;-59
2022/11/07 12:45:22;;;;;;;5.57;1.90;;;16.50;99.90;;;;;;5094572;28;20483;-59
2022/11/07 12:48:11;;;;;;;4.43;3.20;;;16.50;99.90;;;;;;5094227;28;21099;-59
2022/11/07 12:50:44;;;;;;;1.63;1.50;;;16.60;99.90;;;;;;5094286;28;20479;-59
2022/11/07 12:53:27;;;;;;;2.70;1.70;;;16.50;99.90;;;;;;5094121;28;20438;-60
2022/11/07 12:56:02;;;;;;;2.87;2.30;;;16.30;99.90;;;;;;5094258;28;20517;-59
2022/11/07 12:58:32;;;;;;;2.23;1.73;;;16.30;99.90;;;;;;5094406;28;20423;-60
2022/11/07 13:01:00;;;;;;;1.73;1.63;;;16.30;99.90;;;;;;5094091;28;20530;-60
2022/11/07 13:03:57;;;;;;;5.80;2.30;;;16.30;99.90;;;;;;5093891;28;20448;-59
2022/11/07 13:06:31;;;;;;;1.70;1.60;;;16.60;99.90;;;;;;5081376;28;20467;-59
2022/11/07 13:09:10;;;;;;;2.60;1.80;;;16.70;99.90;;;;;;5093969;28;20446;-60
2022/11/07 13:11:44;;;;;;;3.33;1.80;;;16.60;99.90;;;;;;5094400;28;20443;-60
2022/11/07 13:14:27;;;;;;;3.00;2.03;;;16.60;99.90;;;;;;5093957;28;20905;-60
2022/11/07 13:17:14;;;;;;;5.40;1.77;;;16.40;99.90;;;;;;5094434;28;20502;-59
2022/11/07 13:19:43;;;;;;;4.23;2.10;;;16.10;99.90;;;;;;5094231;28;20428;-60